sensor_id;sensor_type;location;lat;lon;timestamp;temperature;humidity
20672;DHT22;10495;50.922;4.760;2022-11-21T00:01:59;8.50;87.40
20672;DHT22;10495;50.922;4.760;2022-11-21T00:04:25;8.50;87.10
20672;DHT22;10495;50.922;4.760;2022-11-21T00:06:50;8.50;86.50
20672;DHT22;10495;50.922;4.760;2022-11-21T00:09:17;8.60;85.90
20672;DHT22;10495;50.922;4.760;2022-11-21T00:11:43;8.60;86.00
20672;DHT22;10495;50.922;4.760;2022-11-21T00:14:08;8.50;86.40
20672;DHT22;10495;50.922;4.760;2022-11-21T00:16:34;8.60;86.60
20672;DHT22;10495;50.922;4.760;2022-11-21T00:18:59;8.60;86.20
20672;DHT22;10495;50.922;4.760;2022-11-21T00:21:25;8.70;86.50
20672;DHT22;10495;50.922;4.760;2022-11-21T00:23:51;8.50;87.20
20672;DHT22;10495;50.922;4.760;2022-11-21T00:26:16;8.50;87.50
20672;DHT22;10495;50.922;4.760;2022-11-21T00:28:43;8.40;87.80
20672;DHT22;10495;50.922;4.760;2022-11-21T00:31:20;8.50;87.90
20672;DHT22;10495;50.922;4.760;2022-11-21T00:33:46;8.70;87.10
20672;DHT22;10495;50.922;4.760;2022-11-21T00:36:11;8.70;87.50
20672;DHT22;10495;50.922;4.760;2022-11-21T00:38:37;8.70;87.00
20672;DHT22;10495;50.922;4.760;2022-11-21T00:41:03;8.60;87.20
20672;DHT22;10495;50.922;4.760;2022-11-21T00:43:29;8.60;87.60
20672;DHT22;10495;50.922;4.760;2022-11-21T00:45:54;8.60;87.70
20672;DHT22;10495;50.922;4.760;2022-11-21T00:48:20;8.50;88.00
20672;DHT22;10495;50.922;4.760;2022-11-21T00:50:48;8.50;88.10
20672;DHT22;10495;50.922;4.760;2022-11-21T00:53:13;8.50;87.90
20672;DHT22;10495;50.922;4.760;2022-11-21T00:55:40;8.40;88.00
20672;DHT22;10495;50.922;4.760;2022-11-21T00:58:06;8.50;88.40
20672;DHT22;10495;50.922;4.760;2022-11-21T01:00:32;8.50;88.60
20672;DHT22;10495;50.922;4.760;2022-11-21T01:02:58;8.50;88.80
20672;DHT22;10495;50.922;4.760;2022-11-21T01:05:25;8.70;88.10
20672;DHT22;10495;50.922;4.760;2022-11-21T01:07:50;8.60;88.30
20672;DHT22;10495;50.922;4.760;2022-11-21T01:10:16;8.60;88.80
20672;DHT22;10495;50.922;4.760;2022-11-21T01:12:41;8.40;89.70
20672;DHT22;10495;50.922;4.760;2022-11-21T01:15:09;8.50;89.30
20672;DHT22;10495;50.922;4.760;2022-11-21T01:17:34;8.60;88.70
20672;DHT22;10495;50.922;4.760;2022-11-21T01:20:00;8.40;88.70
20672;DHT22;10495;50.922;4.760;2022-11-21T01:22:25;8.30;89.30
20672;DHT22;10495;50.922;4.760;2022-11-21T01:24:51;8.20;89.60
20672;DHT22;10495;50.922;4.760;2022-11-21T01:27:16;8.10;89.60
20672;DHT22;10495;50.922;4.760;2022-11-21T01:29:42;8.00;89.30
20672;DHT22;10495;50.922;4.760;2022-11-21T01:32:07;8.00;89.50
20672;DHT22;10495;50.922;4.760;2022-11-21T01:34:33;7.90;89.80
20672;DHT22;10495;50.922;4.760;2022-11-21T01:36:59;7.80;90.10
20672;DHT22;10495;50.922;4.760;2022-11-21T01:39:25;7.60;90.30
20672;DHT22;10495;50.922;4.760;2022-11-21T01:41:51;7.80;90.20
20672;DHT22;10495;50.922;4.760;2022-11-21T01:46:42;7.90;90.00
20672;DHT22;10495;50.922;4.760;2022-11-21T01:49:11;7.80;89.90
20672;DHT22;10495;50.922;4.760;2022-11-21T01:54:35;8.00;90.00
20672;DHT22;10495;50.922;4.760;2022-11-21T01:57:14;8.10;89.70
20672;DHT22;10495;50.922;4.760;2022-11-21T02:02:10;8.10;90.00
20672;DHT22;10495;50.922;4.760;2022-11-21T02:04:40;8.20;89.90
20672;DHT22;10495;50.922;4.760;2022-11-21T02:07:07;8.10;89.80
20672;DHT22;10495;50.922;4.760;2022-11-21T02:09:35;8.20;90.10
20672;DHT22;10495;50.922;4.760;2022-11-21T02:12:06;8.20;90.10
20672;DHT22;10495;50.922;4.760;2022-11-21T02:14:34;8.20;90.10
20672;DHT22;10495;50.922;4.760;2022-11-21T02:17:04;8.10;90.20
20672;DHT22;10495;50.922;4.760;2022-11-21T02:19:51;8.10;90.40
20672;DHT22;10495;50.922;4.760;2022-11-21T02:27:33;8.10;90.60
20672;DHT22;10495;50.922;4.760;2022-11-21T02:30:00;8.20;90.50
20672;DHT22;10495;50.922;4.760;2022-11-21T02:32:37;8.20;90.50
20672;DHT22;10495;50.922;4.760;2022-11-21T02:35:03;8.30;90.50
20672;DHT22;10495;50.922;4.760;2022-11-21T02:37:30;8.30;90.50
20672;DHT22;10495;50.922;4.760;2022-11-21T02:39:58;8.40;90.50
20672;DHT22;10495;50.922;4.760;2022-11-21T02:42:35;8.40;90.30
20672;DHT22;10495;50.922;4.760;2022-11-21T02:45:24;8.50;90.30
20672;DHT22;10495;50.922;4.760;2022-11-21T02:47:54;8.40;90.40
20672;DHT22;10495;50.922;4.760;2022-11-21T02:50:26;8.40;90.50
20672;DHT22;10495;50.922;4.760;2022-11-21T02:52:52;8.40;90.40
20672;DHT22;10495;50.922;4.760;2022-11-21T02:55:19;8.40;90.50
20672;DHT22;10495;50.922;4.760;2022-11-21T02:57:45;8.50;90.60
20672;DHT22;10495;50.922;4.760;2022-11-21T03:00:11;8.50;90.50
20672;DHT22;10495;50.922;4.760;2022-11-21T03:02:36;8.50;90.50
20672;DHT22;10495;50.922;4.760;2022-11-21T03:05:03;8.60;90.40
20672;DHT22;10495;50.922;4.760;2022-11-21T03:07:29;8.60;90.40
20672;DHT22;10495;50.922;4.760;2022-11-21T03:09:56;8.60;90.40
20672;DHT22;10495;50.922;4.760;2022-11-21T03:12:21;8.40;90.60
20672;DHT22;10495;50.922;4.760;2022-11-21T03:14:47;8.40;90.80
20672;DHT22;10495;50.922;4.760;2022-11-21T03:17:13;8.50;90.90
20672;DHT22;10495;50.922;4.760;2022-11-21T03:19:38;8.60;90.70
20672;DHT22;10495;50.922;4.760;2022-11-21T03:22:04;8.70;90.40
20672;DHT22;10495;50.922;4.760;2022-11-21T03:24:29;8.70;90.50
20672;DHT22;10495;50.922;4.760;2022-11-21T03:26:55;8.70;90.50
20672;DHT22;10495;50.922;4.760;2022-11-21T03:29:21;8.60;90.70
20672;DHT22;10495;50.922;4.760;2022-11-21T03:31:46;8.40;90.90
20672;DHT22;10495;50.922;4.760;2022-11-21T03:34:12;8.20;91.30
20672;DHT22;10495;50.922;4.760;2022-11-21T03:36:38;8.10;91.60
20672;DHT22;10495;50.922;4.760;2022-11-21T03:39:04;8.00;91.80
20672;DHT22;10495;50.922;4.760;2022-11-21T03:41:29;7.90;92.10
20672;DHT22;10495;50.922;4.760;2022-11-21T03:46:25;7.70;92.70
20672;DHT22;10495;50.922;4.760;2022-11-21T03:48:51;7.80;92.80
20672;DHT22;10495;50.922;4.760;2022-11-21T03:51:17;7.80;92.40
20672;DHT22;10495;50.922;4.760;2022-11-21T03:53:42;7.80;92.50
20672;DHT22;10495;50.922;4.760;2022-11-21T03:56:08;7.80;92.30
20672;DHT22;10495;50.922;4.760;2022-11-21T03:58:34;7.80;92.40
20672;DHT22;10495;50.922;4.760;2022-11-21T04:00:59;7.90;92.50
20672;DHT22;10495;50.922;4.760;2022-11-21T04:03:25;7.90;92.30
20672;DHT22;10495;50.922;4.760;2022-11-21T04:05:50;7.70;92.40
20672;DHT22;10495;50.922;4.760;2022-11-21T04:08:16;7.90;92.40
20672;DHT22;10495;50.922;4.760;2022-11-21T04:10:49;8.00;92.20
20672;DHT22;10495;50.922;4.760;2022-11-21T04:13:15;7.90;91.80
20672;DHT22;10495;50.922;4.760;2022-11-21T04:15:42;7.90;91.90
20672;DHT22;10495;50.922;4.760;2022-11-21T04:18:08;7.90;91.90
20672;DHT22;10495;50.922;4.760;2022-11-21T04:20:33;8.10;91.90
20672;DHT22;10495;50.922;4.760;2022-11-21T04:22:59;8.20;91.60
20672;DHT22;10495;50.922;4.760;2022-11-21T04:25:25;8.20;91.10
20672;DHT22;10495;50.922;4.760;2022-11-21T04:27:50;8.20;91.30
20672;DHT22;10495;50.922;4.760;2022-11-21T04:30:16;8.10;91.10
20672;DHT22;10495;50.922;4.760;2022-11-21T04:32:41;8.10;91.30
20672;DHT22;10495;50.922;4.760;2022-11-21T04:35:08;8.30;91.10
20672;DHT22;10495;50.922;4.760;2022-11-21T04:37:34;8.10;90.90
20672;DHT22;10495;50.922;4.760;2022-11-21T04:40:03;8.00;91.20
20672;DHT22;10495;50.922;4.760;2022-11-21T04:42:29;8.00;91.10
20672;DHT22;10495;50.922;4.760;2022-11-21T04:44:54;8.10;91.10
20672;DHT22;10495;50.922;4.760;2022-11-21T04:47:20;8.20;91.00
20672;DHT22;10495;50.922;4.760;2022-11-21T04:49:45;8.10;90.80
20672;DHT22;10495;50.922;4.760;2022-11-21T04:52:11;8.10;91.00
20672;DHT22;10495;50.922;4.760;2022-11-21T04:54:37;8.10;90.90
20672;DHT22;10495;50.922;4.760;2022-11-21T04:57:02;7.90;91.10
20672;DHT22;10495;50.922;4.760;2022-11-21T04:59:28;7.90;91.20
20672;DHT22;10495;50.922;4.760;2022-11-21T05:01:53;8.00;91.20
20672;DHT22;10495;50.922;4.760;2022-11-21T05:04:19;8.20;91.00
20672;DHT22;10495;50.922;4.760;2022-11-21T05:06:45;8.10;90.50
20672;DHT22;10495;50.922;4.760;2022-11-21T05:09:10;7.80;91.00
20672;DHT22;10495;50.922;4.760;2022-11-21T05:11:36;7.70;91.40
20672;DHT22;10495;50.922;4.760;2022-11-21T05:14:20;7.90;91.20
20672;DHT22;10495;50.922;4.760;2022-11-21T05:16:45;7.90;91.20
20672;DHT22;10495;50.922;4.760;2022-11-21T05:19:11;8.00;91.10
20672;DHT22;10495;50.922;4.760;2022-11-21T05:21:37;8.10;91.00
20672;DHT22;10495;50.922;4.760;2022-11-21T05:24:02;8.00;91.20
20672;DHT22;10495;50.922;4.760;2022-11-21T05:26:28;7.90;91.00
20672;DHT22;10495;50.922;4.760;2022-11-21T05:28:53;8.00;91.20
20672;DHT22;10495;50.922;4.760;2022-11-21T05:31:19;7.90;91.20
20672;DHT22;10495;50.922;4.760;2022-11-21T05:33:44;7.80;91.10
20672;DHT22;10495;50.922;4.760;2022-11-21T05:36:10;7.70;91.30
20672;DHT22;10495;50.922;4.760;2022-11-21T05:38:35;7.80;91.40
20672;DHT22;10495;50.922;4.760;2022-11-21T05:41:01;7.80;91.30
20672;DHT22;10495;50.922;4.760;2022-11-21T05:43:27;7.80;91.30
20672;DHT22;10495;50.922;4.760;2022-11-21T05:46:21;7.90;91.20
20672;DHT22;10495;50.922;4.760;2022-11-21T05:48:48;8.00;90.90
20672;DHT22;10495;50.922;4.760;2022-11-21T05:51:15;8.10;90.90
20672;DHT22;10495;50.922;4.760;2022-11-21T05:53:41;7.90;90.90
20672;DHT22;10495;50.922;4.760;2022-11-21T05:56:10;8.00;90.90
20672;DHT22;10495;50.922;4.760;2022-11-21T05:58:36;7.80;91.00
20672;DHT22;10495;50.922;4.760;2022-11-21T06:01:03;7.70;91.20
20672;DHT22;10495;50.922;4.760;2022-11-21T06:03:31;7.90;91.00
20672;DHT22;10495;50.922;4.760;2022-11-21T06:08:41;7.80;90.90
20672;DHT22;10495;50.922;4.760;2022-11-21T06:11:08;7.80;90.90
20672;DHT22;10495;50.922;4.760;2022-11-21T06:13:34;7.70;90.80
20672;DHT22;10495;50.922;4.760;2022-11-21T06:16:09;7.60;91.00
20672;DHT22;10495;50.922;4.760;2022-11-21T06:18:37;7.60;91.00
20672;DHT22;10495;50.922;4.760;2022-11-21T06:21:16;7.60;91.20
20672;DHT22;10495;50.922;4.760;2022-11-21T06:23:43;7.80;91.00
20672;DHT22;10495;50.922;4.760;2022-11-21T06:26:14;7.70;90.70
20672;DHT22;10495;50.922;4.760;2022-11-21T06:28:41;7.70;90.70
20672;DHT22;10495;50.922;4.760;2022-11-21T06:31:13;7.60;90.70
20672;DHT22;10495;50.922;4.760;2022-11-21T06:33:39;7.60;90.70
20672;DHT22;10495;50.922;4.760;2022-11-21T06:36:11;7.60;90.80
20672;DHT22;10495;50.922;4.760;2022-11-21T06:38:37;7.70;90.50
20672;DHT22;10495;50.922;4.760;2022-11-21T06:41:11;7.70;90.50
20672;DHT22;10495;50.922;4.760;2022-11-21T06:43:37;7.50;90.50
20672;DHT22;10495;50.922;4.760;2022-11-21T06:46:02;7.30;90.50
20672;DHT22;10495;50.922;4.760;2022-11-21T06:48:32;7.20;90.80
20672;DHT22;10495;50.922;4.760;2022-11-21T06:51:04;7.00;90.90
20672;DHT22;10495;50.922;4.760;2022-11-21T06:53:30;6.90;90.90
20672;DHT22;10495;50.922;4.760;2022-11-21T06:56:00;6.80;91.10
20672;DHT22;10495;50.922;4.760;2022-11-21T06:58:26;6.70;91.20
20672;DHT22;10495;50.922;4.760;2022-11-21T07:00:53;6.70;91.10
20672;DHT22;10495;50.922;4.760;2022-11-21T07:03:19;6.70;91.10
20672;DHT22;10495;50.922;4.760;2022-11-21T07:05:45;6.70;91.10
20672;DHT22;10495;50.922;4.760;2022-11-21T07:08:11;6.80;90.90
20672;DHT22;10495;50.922;4.760;2022-11-21T07:10:36;6.80;90.80
20672;DHT22;10495;50.922;4.760;2022-11-21T07:13:02;6.70;90.80
20672;DHT22;10495;50.922;4.760;2022-11-21T07:15:46;6.60;91.00
20672;DHT22;10495;50.922;4.760;2022-11-21T07:18:12;6.60;91.00
20672;DHT22;10495;50.922;4.760;2022-11-21T07:20:39;6.50;91.10
20672;DHT22;10495;50.922;4.760;2022-11-21T07:23:06;6.40;91.10
20672;DHT22;10495;50.922;4.760;2022-11-21T07:25:32;6.30;91.30
20672;DHT22;10495;50.922;4.760;2022-11-21T07:28:01;6.40;91.30
20672;DHT22;10495;50.922;4.760;2022-11-21T07:30:27;6.40;91.20
20672;DHT22;10495;50.922;4.760;2022-11-21T07:32:57;6.40;91.20
20672;DHT22;10495;50.922;4.760;2022-11-21T07:35:23;6.30;91.10
20672;DHT22;10495;50.922;4.760;2022-11-21T07:37:49;6.30;91.30
20672;DHT22;10495;50.922;4.760;2022-11-21T07:40:15;6.30;91.30
20672;DHT22;10495;50.922;4.760;2022-11-21T07:42:40;6.30;91.30
20672;DHT22;10495;50.922;4.760;2022-11-21T07:45:06;6.30;91.30
20672;DHT22;10495;50.922;4.760;2022-11-21T07:47:32;6.30;91.40
20672;DHT22;10495;50.922;4.760;2022-11-21T07:49:58;6.20;91.50
20672;DHT22;10495;50.922;4.760;2022-11-21T07:52:23;6.20;91.50
20672;DHT22;10495;50.922;4.760;2022-11-21T07:54:50;6.00;91.70
20672;DHT22;10495;50.922;4.760;2022-11-21T07:57:15;6.10;91.90
20672;DHT22;10495;50.922;4.760;2022-11-21T07:59:41;6.00;91.90
20672;DHT22;10495;50.922;4.760;2022-11-21T08:02:11;6.10;91.80
20672;DHT22;10495;50.922;4.760;2022-11-21T08:04:37;6.10;91.90
20672;DHT22;10495;50.922;4.760;2022-11-21T08:07:03;6.30;92.10
20672;DHT22;10495;50.922;4.760;2022-11-21T08:09:29;6.50;91.70
20672;DHT22;10495;50.922;4.760;2022-11-21T08:11:54;6.50;91.60
20672;DHT22;10495;50.922;4.760;2022-11-21T08:14:20;6.70;91.40
20672;DHT22;10495;50.922;4.760;2022-11-21T08:16:45;6.70;91.30
20672;DHT22;10495;50.922;4.760;2022-11-21T08:19:11;6.80;91.20
20672;DHT22;10495;50.922;4.760;2022-11-21T08:21:36;7.00;91.20
20672;DHT22;10495;50.922;4.760;2022-11-21T08:24:02;7.10;90.80
20672;DHT22;10495;50.922;4.760;2022-11-21T08:26:28;7.30;90.80
20672;DHT22;10495;50.922;4.760;2022-11-21T08:28:53;7.40;90.50
20672;DHT22;10495;50.922;4.760;2022-11-21T08:31:19;7.50;90.20
20672;DHT22;10495;50.922;4.760;2022-11-21T08:33:44;7.70;89.70
20672;DHT22;10495;50.922;4.760;2022-11-21T08:36:10;7.80;90.10
20672;DHT22;10495;50.922;4.760;2022-11-21T08:38:35;7.90;89.50
20672;DHT22;10495;50.922;4.760;2022-11-21T08:41:01;7.70;88.90
20672;DHT22;10495;50.922;4.760;2022-11-21T08:43:45;7.60;89.60
20672;DHT22;10495;50.922;4.760;2022-11-21T08:46:10;7.40;89.30
20672;DHT22;10495;50.922;4.760;2022-11-21T08:48:36;7.30;89.80
20672;DHT22;10495;50.922;4.760;2022-11-21T08:51:02;7.10;90.20
20672;DHT22;10495;50.922;4.760;2022-11-21T08:53:27;7.10;90.40
20672;DHT22;10495;50.922;4.760;2022-11-21T08:55:53;7.10;90.30
20672;DHT22;10495;50.922;4.760;2022-11-21T08:58:19;7.10;90.40
20672;DHT22;10495;50.922;4.760;2022-11-21T09:00:44;7.20;90.50
20672;DHT22;10495;50.922;4.760;2022-11-21T09:03:10;7.10;90.50
20672;DHT22;10495;50.922;4.760;2022-11-21T09:05:35;7.30;90.70
20672;DHT22;10495;50.922;4.760;2022-11-21T09:08:01;7.60;90.40
20672;DHT22;10495;50.922;4.760;2022-11-21T09:10:27;7.80;89.90
20672;DHT22;10495;50.922;4.760;2022-11-21T09:12:56;8.00;90.10
20672;DHT22;10495;50.922;4.760;2022-11-21T09:15:22;8.40;89.50
20672;DHT22;10495;50.922;4.760;2022-11-21T09:18:06;8.60;88.30
20672;DHT22;10495;50.922;4.760;2022-11-21T09:20:38;8.70;87.90
20672;DHT22;10495;50.922;4.760;2022-11-21T09:23:11;8.90;87.20
20672;DHT22;10495;50.922;4.760;2022-11-21T09:25:37;8.90;87.20
20672;DHT22;10495;50.922;4.760;2022-11-21T09:28:04;8.80;87.30
20672;DHT22;10495;50.922;4.760;2022-11-21T09:30:30;8.80;87.10
20672;DHT22;10495;50.922;4.760;2022-11-21T09:33:03;8.60;86.60
20672;DHT22;10495;50.922;4.760;2022-11-21T09:35:29;8.30;87.70
20672;DHT22;10495;50.922;4.760;2022-11-21T09:37:55;8.20;88.30
20672;DHT22;10495;50.922;4.760;2022-11-21T09:40:21;8.20;88.70
20672;DHT22;10495;50.922;4.760;2022-11-21T09:46:10;8.20;88.90
20672;DHT22;10495;50.922;4.760;2022-11-21T09:48:59;8.20;88.70
20672;DHT22;10495;50.922;4.760;2022-11-21T09:51:26;8.40;88.70
20672;DHT22;10495;50.922;4.760;2022-11-21T09:56:36;8.50;88.10
20672;DHT22;10495;50.922;4.760;2022-11-21T10:01:40;8.60;88.20
20672;DHT22;10495;50.922;4.760;2022-11-21T10:04:05;8.70;88.00
20672;DHT22;10495;50.922;4.760;2022-11-21T10:06:37;8.80;87.20
20672;DHT22;10495;50.922;4.760;2022-11-21T10:12:15;8.80;88.30
20672;DHT22;10495;50.922;4.760;2022-11-21T10:31:20;9.10;87.00
20672;DHT22;10495;50.922;4.760;2022-11-21T10:33:49;8.90;88.50
20672;DHT22;10495;50.922;4.760;2022-11-21T10:36:26;9.00;88.00
20672;DHT22;10495;50.922;4.760;2022-11-21T10:39:00;9.40;86.20
20672;DHT22;10495;50.922;4.760;2022-11-21T10:44:49;9.40;87.00
20672;DHT22;10495;50.922;4.760;2022-11-21T10:47:34;9.60;86.10
20672;DHT22;10495;50.922;4.760;2022-11-21T10:56:13;9.50;86.10
20672;DHT22;10495;50.922;4.760;2022-11-21T10:58:42;9.30;87.00
20672;DHT22;10495;50.922;4.760;2022-11-21T11:06:41;9.20;86.70
20672;DHT22;10495;50.922;4.760;2022-11-21T11:12:11;9.70;84.30
20672;DHT22;10495;50.922;4.760;2022-11-21T11:14:38;9.60;84.50
20672;DHT22;10495;50.922;4.760;2022-11-21T11:17:04;9.20;86.70
20672;DHT22;10495;50.922;4.760;2022-11-21T11:19:30;9.00;87.80
20672;DHT22;10495;50.922;4.760;2022-11-21T11:21:55;9.30;87.20
20672;DHT22;10495;50.922;4.760;2022-11-21T11:24:25;9.40;87.00
20672;DHT22;10495;50.922;4.760;2022-11-21T11:26:58;9.20;87.50
20672;DHT22;10495;50.922;4.760;2022-11-21T11:29:29;9.20;88.00
20672;DHT22;10495;50.922;4.760;2022-11-21T11:32:02;9.10;88.20
20672;DHT22;10495;50.922;4.760;2022-11-21T11:34:37;9.20;88.60
20672;DHT22;10495;50.922;4.760;2022-11-21T11:37:19;9.40;87.60
20672;DHT22;10495;50.922;4.760;2022-11-21T11:40:01;9.50;87.00
20672;DHT22;10495;50.922;4.760;2022-11-21T11:49:39;9.90;85.10
20672;DHT22;10495;50.922;4.760;2022-11-21T11:53:12;10.20;83.20
20672;DHT22;10495;50.922;4.760;2022-11-21T11:55:40;10.30;83.00
20672;DHT22;10495;50.922;4.760;2022-11-21T11:58:37;10.10;83.70
20672;DHT22;10495;50.922;4.760;2022-11-21T12:01:12;9.90;85.00
20672;DHT22;10495;50.922;4.760;2022-11-21T12:03:43;10.00;85.00
20672;DHT22;10495;50.922;4.760;2022-11-21T12:06:25;9.70;86.00
20672;DHT22;10495;50.922;4.760;2022-11-21T12:09:29;10.10;84.50
20672;DHT22;10495;50.922;4.760;2022-11-21T12:14:49;10.10;84.10
20672;DHT22;10495;50.922;4.760;2022-11-21T12:20:27;9.90;85.70
20672;DHT22;10495;50.922;4.760;2022-11-21T12:22:54;9.60;87.30
20672;DHT22;10495;50.922;4.760;2022-11-21T12:25:30;9.60;87.80
20672;DHT22;10495;50.922;4.760;2022-11-21T12:27:57;9.80;87.30
20672;DHT22;10495;50.922;4.760;2022-11-21T12:30:45;9.80;87.50
20672;DHT22;10495;50.922;4.760;2022-11-21T12:33:21;10.10;87.00
20672;DHT22;10495;50.922;4.760;2022-11-21T12:36:11;10.20;86.30
20672;DHT22;10495;50.922;4.760;2022-11-21T12:44:43;10.50;85.10
20672;DHT22;10495;50.922;4.760;2022-11-21T12:50:47;10.60;84.00
20672;DHT22;10495;50.922;4.760;2022-11-21T12:53:55;10.70;84.10
20672;DHT22;10495;50.922;4.760;2022-11-21T12:56:50;10.90;83.00
20672;DHT22;10495;50.922;4.760;2022-11-21T12:59:18;10.90;82.50
20672;DHT22;10495;50.922;4.760;2022-11-21T13:04:39;10.70;83.90
20672;DHT22;10495;50.922;4.760;2022-11-21T13:07:06;10.50;84.60
20672;DHT22;10495;50.922;4.760;2022-11-21T13:09:40;10.40;85.40
20672;DHT22;10495;50.922;4.760;2022-11-21T13:12:16;10.40;85.80
20672;DHT22;10495;50.922;4.760;2022-11-21T13:14:51;10.80;84.40
20672;DHT22;10495;50.922;4.760;2022-11-21T13:25:08;10.60;84.90
20672;DHT22;10495;50.922;4.760;2022-11-21T13:27:39;10.80;84.60
20672;DHT22;10495;50.922;4.760;2022-11-21T13:32:53;10.80;84.80
20672;DHT22;10495;50.922;4.760;2022-11-21T13:43:13;10.60;85.90
20672;DHT22;10495;50.922;4.760;2022-11-21T13:45:47;10.70;85.50
20672;DHT22;10495;50.922;4.760;2022-11-21T13:51:05;10.90;85.00
20672;DHT22;10495;50.922;4.760;2022-11-21T13:56:29;10.50;86.20
20672;DHT22;10495;50.922;4.760;2022-11-21T14:04:35;10.80;85.00
20672;DHT22;10495;50.922;4.760;2022-11-21T14:07:32;10.80;85.00
20672;DHT22;10495;50.922;4.760;2022-11-21T14:10:15;10.80;85.50
20672;DHT22;10495;50.922;4.760;2022-11-21T14:12:46;10.60;85.40
20672;DHT22;10495;50.922;4.760;2022-11-21T14:15:37;11.00;84.70
20672;DHT22;10495;50.922;4.760;2022-11-21T14:18:19;11.00;83.90
20672;DHT22;10495;50.922;4.760;2022-11-21T14:20:59;11.20;82.20
20672;DHT22;10495;50.922;4.760;2022-11-21T14:23:28;11.40;81.60
20672;DHT22;10495;50.922;4.760;2022-11-21T14:25:55;11.10;82.50
20672;DHT22;10495;50.922;4.760;2022-11-21T14:28:27;11.10;82.70
20672;DHT22;10495;50.922;4.760;2022-11-21T14:31:07;11.10;82.30
20672;DHT22;10495;50.922;4.760;2022-11-21T14:33:34;11.20;81.70
20672;DHT22;10495;50.922;4.760;2022-11-21T14:38:33;11.20;81.90
20672;DHT22;10495;50.922;4.760;2022-11-21T14:41:30;11.10;82.10
20672;DHT22;10495;50.922;4.760;2022-11-21T14:46:38;11.10;82.50
20672;DHT22;10495;50.922;4.760;2022-11-21T14:51:56;11.10;81.80
20672;DHT22;10495;50.922;4.760;2022-11-21T14:54:25;11.10;82.60
20672;DHT22;10495;50.922;4.760;2022-11-21T14:57:05;11.00;82.50
20672;DHT22;10495;50.922;4.760;2022-11-21T14:59:40;11.00;82.60
20672;DHT22;10495;50.922;4.760;2022-11-21T15:02:30;11.00;82.60
20672;DHT22;10495;50.922;4.760;2022-11-21T15:05:03;11.00;82.40
20672;DHT22;10495;50.922;4.760;2022-11-21T15:07:43;11.00;82.80
20672;DHT22;10495;50.922;4.760;2022-11-21T15:10:17;11.00;82.80
20672;DHT22;10495;50.922;4.760;2022-11-21T15:12:47;11.00;82.80
20672;DHT22;10495;50.922;4.760;2022-11-21T15:17:58;10.90;83.10
20672;DHT22;10495;50.922;4.760;2022-11-21T15:20:26;10.90;82.90
20672;DHT22;10495;50.922;4.760;2022-11-21T15:22:58;10.90;82.80
20672;DHT22;10495;50.922;4.760;2022-11-21T15:25:28;11.00;82.70
20672;DHT22;10495;50.922;4.760;2022-11-21T15:30:30;10.80;83.50
20672;DHT22;10495;50.922;4.760;2022-11-21T15:38:32;11.10;82.20
20672;DHT22;10495;50.922;4.760;2022-11-21T15:41:30;10.90;83.10
20672;DHT22;10495;50.922;4.760;2022-11-21T15:49:10;10.80;82.90
20672;DHT22;10495;50.922;4.760;2022-11-21T15:51:46;10.90;82.60
20672;DHT22;10495;50.922;4.760;2022-11-21T15:54:17;10.90;82.70
20672;DHT22;10495;50.922;4.760;2022-11-21T15:56:43;10.80;83.10
20672;DHT22;10495;50.922;4.760;2022-11-21T15:59:09;10.90;82.70
20672;DHT22;10495;50.922;4.760;2022-11-21T16:01:35;11.00;82.40
20672;DHT22;10495;50.922;4.760;2022-11-21T16:04:03;11.00;82.40
20672;DHT22;10495;50.922;4.760;2022-11-21T16:06:29;11.00;82.10
20672;DHT22;10495;50.922;4.760;2022-11-21T16:08:56;11.10;81.80
20672;DHT22;10495;50.922;4.760;2022-11-21T16:11:27;11.10;81.80
20672;DHT22;10495;50.922;4.760;2022-11-21T16:13:58;10.90;82.40
20672;DHT22;10495;50.922;4.760;2022-11-21T16:16:25;10.90;82.50
20672;DHT22;10495;50.922;4.760;2022-11-21T16:18:52;10.60;83.00
20672;DHT22;10495;50.922;4.760;2022-11-21T16:21:17;10.60;83.90
20672;DHT22;10495;50.922;4.760;2022-11-21T16:23:43;10.80;82.70
20672;DHT22;10495;50.922;4.760;2022-11-21T16:26:10;10.80;82.90
20672;DHT22;10495;50.922;4.760;2022-11-21T16:28:36;10.80;83.10
20672;DHT22;10495;50.922;4.760;2022-11-21T16:31:03;10.80;82.70
20672;DHT22;10495;50.922;4.760;2022-11-21T16:33:29;10.90;82.30
20672;DHT22;10495;50.922;4.760;2022-11-21T16:35:55;10.80;83.00
20672;DHT22;10495;50.922;4.760;2022-11-21T16:38:28;10.50;83.70
20672;DHT22;10495;50.922;4.760;2022-11-21T16:40:59;10.60;83.70
20672;DHT22;10495;50.922;4.760;2022-11-21T16:43:27;10.80;82.70
20672;DHT22;10495;50.922;4.760;2022-11-21T16:45:54;10.90;82.40
20672;DHT22;10495;50.922;4.760;2022-11-21T16:48:21;11.00;81.80
20672;DHT22;10495;50.922;4.760;2022-11-21T16:50:47;11.00;81.70
20672;DHT22;10495;50.922;4.760;2022-11-21T16:53:13;11.00;82.20
20672;DHT22;10495;50.922;4.760;2022-11-21T16:55:39;10.90;82.30
20672;DHT22;10495;50.922;4.760;2022-11-21T16:58:04;10.70;83.00
20672;DHT22;10495;50.922;4.760;2022-11-21T17:00:30;10.80;82.90
20672;DHT22;10495;50.922;4.760;2022-11-21T17:02:57;10.80;82.80
20672;DHT22;10495;50.922;4.760;2022-11-21T17:05:23;10.60;83.50
20672;DHT22;10495;50.922;4.760;2022-11-21T17:07:49;10.60;84.50
20672;DHT22;10495;50.922;4.760;2022-11-21T17:10:15;10.70;84.30
20672;DHT22;10495;50.922;4.760;2022-11-21T17:12:42;10.70;84.30
20672;DHT22;10495;50.922;4.760;2022-11-21T17:15:13;10.70;84.60
20672;DHT22;10495;50.922;4.760;2022-11-21T17:17:39;10.60;84.60
20672;DHT22;10495;50.922;4.760;2022-11-21T17:20:06;10.40;85.80
20672;DHT22;10495;50.922;4.760;2022-11-21T17:22:33;10.50;86.00
20672;DHT22;10495;50.922;4.760;2022-11-21T17:24:58;10.60;85.50
20672;DHT22;10495;50.922;4.760;2022-11-21T17:27:24;10.60;85.90
20672;DHT22;10495;50.922;4.760;2022-11-21T17:29:50;10.40;86.60
20672;DHT22;10495;50.922;4.760;2022-11-21T17:32:16;10.30;86.90
20672;DHT22;10495;50.922;4.760;2022-11-21T17:34:41;10.30;87.20
20672;DHT22;10495;50.922;4.760;2022-11-21T17:37:07;10.40;87.00
20672;DHT22;10495;50.922;4.760;2022-11-21T17:39:33;10.50;86.50
20672;DHT22;10495;50.922;4.760;2022-11-21T17:41:59;10.40;86.90
20672;DHT22;10495;50.922;4.760;2022-11-21T17:44:25;10.20;87.90
20672;DHT22;10495;50.922;4.760;2022-11-21T17:46:51;10.20;88.10
20672;DHT22;10495;50.922;4.760;2022-11-21T17:49:17;10.30;88.90
20672;DHT22;10495;50.922;4.760;2022-11-21T17:51:43;10.30;88.10
20672;DHT22;10495;50.922;4.760;2022-11-21T17:54:09;10.10;88.70
20672;DHT22;10495;50.922;4.760;2022-11-21T17:56:37;9.80;89.60
20672;DHT22;10495;50.922;4.760;2022-11-21T17:59:04;9.60;90.10
20672;DHT22;10495;50.922;4.760;2022-11-21T18:01:30;9.50;90.40
20672;DHT22;10495;50.922;4.760;2022-11-21T18:04:03;9.60;90.50
20672;DHT22;10495;50.922;4.760;2022-11-21T18:06:37;9.90;90.20
20672;DHT22;10495;50.922;4.760;2022-11-21T18:09:05;10.20;89.60
20672;DHT22;10495;50.922;4.760;2022-11-21T18:11:33;10.10;89.80
20672;DHT22;10495;50.922;4.760;2022-11-21T18:14:00;10.10;89.80
20672;DHT22;10495;50.922;4.760;2022-11-21T18:16:28;10.00;89.70
20672;DHT22;10495;50.922;4.760;2022-11-21T18:18:54;10.10;89.70